DKEKS EDVK-EDVK

Flight info

Callsign DKEKS
Flight time 0h 3m
Altitude
Route
Aircraft A33E

Departure

Time 2026-04-30 20:55
Airport Kassel Airport (EDVK)

Arrival

Time 2026-04-30 20:58
Airport Kassel Airport (EDVK)
Time Latitude Longitude Altitude Speed Heading
2026-04-30 20:50 51.41730 9.39511 857 ft 0 kts 273°
2026-04-30 20:51 51.41832 9.39362 857 ft 10 kts 354°
2026-04-30 20:51 51.41915 9.39328 849 ft 12 kts 300°
2026-04-30 20:52 51.41925 9.39152 857 ft 15 kts 272°
2026-04-30 20:52 51.41934 9.38959 857 ft 19 kts 276°
2026-04-30 20:52 51.42004 9.38861 857 ft 3 kts
2026-04-30 20:53 51.42009 9.38863 857 ft 3 kts 11°
2026-04-30 20:53 51.42078 9.38896 857 ft 11 kts 39°
2026-04-30 20:53 51.42097 9.38981 856 ft 15 kts 98°
2026-04-30 20:54 51.42052 9.39871 1070 ft 44 kts 94°
2026-04-30 20:54 51.42025 9.40405 1111 ft 66 kts 90°
2026-04-30 20:54 51.42013 9.41234 1260 ft 74 kts 73°
2026-04-30 20:55 51.43052 9.41369 1740 ft 79 kts
2026-04-30 20:55 51.43626 9.41165 1969 ft 92 kts 352°
2026-04-30 20:55 51.44011 9.40334 2193 ft 101 kts 277°
2026-04-30 20:56 51.43965 9.38407 2483 ft 71 kts 258°
2026-04-30 20:56 51.43966 9.37589 2539 ft 73 kts 265°
2026-04-30 20:56 51.43690 9.36130 2722 ft 61 kts 204°
2026-04-30 20:57 51.43323 9.35909 2780 ft 55 kts 171°
2026-04-30 20:57 51.42695 9.36161 2032 ft 128 kts 143°
2026-04-30 20:57 51.42211 9.37181 1196 ft 115 kts 102°
2026-04-30 20:58 51.42073 9.39504 1581 ft 47 kts 90°
2026-04-30 20:58 51.42038 9.40016 1478 ft 54 kts 94°
2026-04-30 20:58 51.42026 9.40693 1411 ft 60 kts 86°
2026-04-30 20:58 51.42084 9.41227 1528 ft 41 kts 78°
2026-04-30 20:59 51.42692 9.41725 1453 ft 60 kts 12°
2026-04-30 20:59 51.43104 9.41655 1474 ft 58 kts 10°
2026-04-30 21:00 51.43896 9.41145 1351 ft 84 kts 285°
2026-04-30 21:00 51.43827 9.39361 1288 ft 79 kts 252°
2026-04-30 21:01 51.43892 9.37646 1284 ft 74 kts 284°
2026-04-30 21:01 51.44098 9.36946 1308 ft 67 kts 309°
2026-04-30 21:01 51.43721 9.35918 1143 ft 57 kts 166°
2026-04-30 21:02 51.43331 9.35970 1107 ft 56 kts 158°
2026-04-30 21:02 51.42970 9.36103 1110 ft 52 kts 148°
2026-04-30 21:02 51.42650 9.36310 1078 ft 49 kts 133°
2026-04-30 21:02 51.42399 9.36692 1013 ft 51 kts 120°
2026-04-30 21:03 51.42240 9.37144 965 ft 50 kts 108°
2026-04-30 21:03 51.42158 9.37759 895 ft 72 kts 94°
2026-04-30 21:03 51.42139 9.38066 900 ft 80 kts 94°
2026-04-30 21:03 51.42112 9.38615 887 ft 93 kts 93°
2026-04-30 21:04 51.42060 9.39658 1124 ft 77 kts 92°
2026-04-30 21:04 51.42061 9.40334 1582 ft 53 kts 83°
2026-04-30 21:04 51.42387 9.41302 1675 ft 52 kts 45°
2026-04-30 21:05 51.42739 9.41563 1608 ft 60 kts 26°
2026-04-30 21:05 51.43196 9.41545 1577 ft 70 kts 360°
2026-04-30 21:05 51.43686 9.41320 1571 ft 71 kts
2026-04-30 21:05 51.44111 9.41067 1487 ft 78 kts 315°
2026-04-30 21:06 51.44121 9.40093 1263 ft 100 kts 244°
2026-04-30 21:06 51.43830 9.39179 1316 ft 80 kts 225°
2026-04-30 21:06 51.43586 9.38345 1263 ft 85 kts 260°
2026-04-30 21:06 51.43548 9.37414 1312 ft 80 kts 258°
2026-04-30 21:07 51.43578 9.36590 1318 ft 75 kts 322°
2026-04-30 21:07 51.43905 9.36658 1346 ft 42 kts 81°
2026-04-30 21:07 51.43921 9.37078 1375 ft 35 kts 88°
2026-04-30 21:07 51.43949 9.37549 1338 ft 38 kts 85°
2026-04-30 21:08 51.44031 9.37939 1355 ft 44 kts 59°
2026-04-30 21:08 51.44347 9.37799 1260 ft 70 kts 283°
2026-04-30 21:08 51.44129 9.37113 1216 ft 66 kts 224°
2026-04-30 21:08 51.43827 9.36596 1176 ft 61 kts 188°
2026-04-30 21:09 51.43411 9.36610 1157 ft 58 kts 160°
2026-04-30 21:09 51.43041 9.36700 1187 ft 52 kts 152°
2026-04-30 21:09 51.42684 9.36845 1143 ft 51 kts 141°
2026-04-30 21:09 51.42388 9.37058 1104 ft 42 kts 134°
2026-04-30 21:10 51.42182 9.37438 1040 ft 40 kts 104°
2026-04-30 21:10 51.42159 9.37824 1069 ft 29 kts 90°
2026-04-30 21:10 51.42141 9.38143 1038 ft 30 kts 94°
2026-04-30 21:10 51.42126 9.38497 1001 ft 34 kts 89°
2026-04-30 21:11 51.42103 9.38888 1003 ft 28 kts 92°
2026-04-30 21:11 51.42079 9.39251 936 ft 38 kts 95°
2026-04-30 21:11 51.42053 9.39637 853 ft 30 kts 92°
2026-04-30 21:11 51.42036 9.39886 851 ft 17 kts 102°
2026-04-30 21:12 51.41998 9.40076 855 ft 15 kts 118°
2026-04-30 21:12 51.41956 9.40189 853 ft 12 kts 121°
2026-04-30 21:12 51.41893 9.40262 857 ft 9 kts 197°
2026-04-30 21:12 51.41863 9.40177 857 ft 15 kts 277°
2026-04-30 21:13 51.41878 9.40000 857 ft 21 kts 275°
2026-04-30 21:13 51.41887 9.39827 857 ft 4 kts 271°
2026-04-30 21:13 51.41887 9.39808 857 ft 1 kts 264°
2026-04-30 21:13 51.41871 9.39790 854 ft 7 kts 197°
2026-04-30 21:14 51.41788 9.39769 857 ft 12 kts 205°
2026-04-30 21:14 51.41728 9.39642 850 ft 21 kts 257°
2026-04-30 21:14 51.41731 9.39514 857 ft 0 kts 276°